Kezdőlap
METAR-TAF:

METAR-TAF

Repülőterek :

Crystal Airport

Minneapolis-Crystal, Minnesota, Amerikai Egyesült Államok

földrajzi szélesség: 45-03-45N, földrajzi hosszúság: 093-21-03W, magasság: 264 m

Jelenlegi meteorológiai megfigyelések

A jelentés 1 órával és 6 perccel ezelõtt készült, 17:53 UTC
Nyugat-északnyugati szél 9 kt
Hőmérséklet 31°C
Páratartalom 17%
Légköri nyomás 1009 hPa
Látótávolság: 16.1 km
Derült ég

METAR: KMIC 181753Z 30009KT 10SM CLR 31/03 A2981 RMK AO2 SLP089 T03110033 10311 20206 56012

Idő: 13:59 (18:59 UTC)


TAF: hiányzik

Meteorológiai megfigyelések és előrejelzések több, mint 4000 repülőtéren (METAR és TAF jelentéseket).

A térképen piros és sárga pontok jelzik az elérhető meteorológiai állomásokat.

Mozgassa az egeret a pont fölött, hogy megjelenjen az állomás neve.

Azután kattintson az időjárási megfigyelések és előrejelzések megtekintéséhez.

A térkép megváltoztatása: kattintson a fekete keresztel jelölt zöld gombra ráközelítéshez, a vonallal jelölt zöld gombra távolításhoz, vagy a zöld nyilakra a szomszédos térképek eléréséhez.


METAR-TAF: